createdAt,value
2023-03-25T00:00:44.682Z,14.40
2023-03-25T00:02:48.253Z,14.30
2023-03-25T00:04:53.582Z,14.30
2023-03-25T00:06:56.081Z,14.30
2023-03-25T00:08:57.689Z,14.30
2023-03-25T00:11:00.238Z,14.30
2023-03-25T00:13:05.445Z,14.30
2023-03-25T00:15:07.749Z,14.30
2023-03-25T00:17:10.499Z,14.30
2023-03-25T00:19:12.182Z,14.20
2023-03-25T00:21:13.826Z,14.30
2023-03-25T00:23:16.106Z,14.30
2023-03-25T00:25:19.232Z,14.20
2023-03-25T00:27:21.620Z,14.20
2023-03-25T00:29:23.285Z,14.30
2023-03-25T00:31:25.101Z,14.20
2023-03-25T00:33:27.051Z,14.20
2023-03-25T00:35:29.116Z,14.20
2023-03-25T00:37:31.161Z,14.20
2023-03-25T00:39:32.901Z,14.20
2023-03-25T00:41:37.002Z,14.20
2023-03-25T00:43:39.482Z,14.20
2023-03-25T00:45:41.210Z,14.20
2023-03-25T00:47:43.617Z,14.10
2023-03-25T00:49:45.317Z,14.10
2023-03-25T00:51:53.013Z,14.20
2023-03-25T00:53:56.873Z,14.20
2023-03-25T00:55:58.565Z,14.10
2023-03-25T00:58:00.288Z,14.10
2023-03-25T01:00:02.299Z,14.10
2023-03-25T01:02:06.362Z,14.10
2023-03-25T01:04:12.568Z,14.10
2023-03-25T01:06:16.866Z,14.10
2023-03-25T01:08:19.151Z,14.10
2023-03-25T01:10:21.303Z,14.10
2023-03-25T01:12:22.981Z,14.10
2023-03-25T01:14:27.647Z,14.00
2023-03-25T01:16:29.792Z,14.00
2023-03-25T01:18:34.878Z,14.00
2023-03-25T01:20:36.647Z,14.00
2023-03-25T01:22:38.403Z,14.00
2023-03-25T01:24:40.286Z,14.00
2023-03-25T01:26:43.666Z,14.00
2023-03-25T01:28:45.665Z,14.00
2023-03-25T01:30:47.329Z,14.00
2023-03-25T01:32:49.038Z,14.00
2023-03-25T01:34:50.708Z,14.00
2023-03-25T01:36:55.451Z,14.00
2023-03-25T01:39:01.363Z,14.00
2023-03-25T01:41:03.764Z,14.00
2023-03-25T01:43:09.038Z,14.00
2023-03-25T01:45:15.623Z,14.00
2023-03-25T01:47:17.466Z,14.00
2023-03-25T01:49:31.152Z,14.00
2023-03-25T01:51:36.432Z,14.00
2023-03-25T01:53:38.689Z,14.00
2023-03-25T01:55:40.343Z,14.00
2023-03-25T01:57:46.017Z,14.00
2023-03-25T01:59:48.187Z,14.00
2023-03-25T02:01:51.374Z,14.00
2023-03-25T02:03:54.093Z,13.90
2023-03-25T02:06:00.834Z,13.90
2023-03-25T02:08:03.768Z,13.90
2023-03-25T02:10:07.640Z,13.90
2023-03-25T02:12:09.378Z,13.80
2023-03-25T02:14:12.788Z,13.80
2023-03-25T02:16:20.577Z,13.80
2023-03-25T02:18:38.067Z,13.70
2023-03-25T02:20:58.133Z,13.70
2023-03-25T02:23:15.081Z,13.60
2023-03-25T02:25:35.447Z,13.60
2023-03-25T02:27:45.903Z,13.50
2023-03-25T02:30:06.967Z,13.40
2023-03-25T02:32:08.760Z,13.40
2023-03-25T02:34:23.653Z,13.40
2023-03-25T02:36:41.414Z,13.30
2023-03-25T02:38:46.571Z,13.30
2023-03-25T02:40:55.831Z,13.30
2023-03-25T02:43:05.532Z,13.30
2023-03-25T02:45:20.906Z,13.20
2023-03-25T02:47:24.959Z,13.20
2023-03-25T02:49:49.719Z,13.20
2023-03-25T02:52:13.123Z,13.20
2023-03-25T02:54:16.696Z,13.20
2023-03-25T02:56:22.272Z,13.10
2023-03-25T02:58:24.445Z,13.10
2023-03-25T03:00:28.564Z,13.10
2023-03-25T03:02:32.237Z,13.10
2023-03-25T03:04:44.964Z,13.10
2023-03-25T03:06:47.929Z,13.00
2023-03-25T03:08:49.612Z,13.00
2023-03-25T03:10:54.346Z,13.00
2023-03-25T03:13:05.678Z,13.00
2023-03-25T03:15:07.514Z,12.90
2023-03-25T03:17:27.212Z,12.90
2023-03-25T03:19:46.361Z,12.90
2023-03-25T03:22:02.792Z,12.80
2023-03-25T03:24:13.866Z,12.80
2023-03-25T03:26:15.928Z,12.80
2023-03-25T03:28:24.594Z,12.80
2023-03-25T03:30:32.584Z,12.70
2023-03-25T03:32:57.669Z,12.70
2023-03-25T03:35:01.582Z,12.70
2023-03-25T03:37:04.242Z,12.70
2023-03-25T03:39:10.024Z,12.60
2023-03-25T03:41:14.220Z,12.60
2023-03-25T03:43:19.716Z,12.60
2023-03-25T03:45:36.526Z,12.60
2023-03-25T03:47:41.418Z,12.60
2023-03-25T03:49:46.684Z,12.50
2023-03-25T03:52:11.674Z,12.50
2023-03-25T03:54:16.052Z,12.50
2023-03-25T03:56:21.978Z,12.50
2023-03-25T03:58:28.342Z,12.50
2023-03-25T04:00:33.442Z,12.50
2023-03-25T04:03:01.715Z,12.50
2023-03-25T04:05:03.542Z,12.50
2023-03-25T04:07:10.531Z,12.50
2023-03-25T04:09:27.737Z,12.50
2023-03-25T04:11:32.859Z,12.50
2023-03-25T04:13:36.728Z,12.50
2023-03-25T04:15:38.522Z,12.50
2023-03-25T04:17:40.190Z,12.50
2023-03-25T04:19:41.861Z,12.50
2023-03-25T04:21:43.519Z,12.50
2023-03-25T04:23:46.132Z,12.50
2023-03-25T04:25:49.670Z,12.50
2023-03-25T04:27:53.726Z,12.50
2023-03-25T04:29:57.567Z,12.50
2023-03-25T04:31:59.979Z,12.50
2023-03-25T04:34:02.371Z,12.50
2023-03-25T04:36:04.182Z,12.60
2023-03-25T04:38:06.586Z,12.60
2023-03-25T04:40:09.228Z,12.60
2023-03-25T04:42:13.660Z,12.60
2023-03-25T04:44:16.037Z,12.60
2023-03-25T04:46:18.204Z,12.60
2023-03-25T04:48:25.924Z,12.60
2023-03-25T04:50:28.488Z,12.60
2023-03-25T04:52:30.105Z,12.60
2023-03-25T04:54:31.751Z,12.60
2023-03-25T04:56:33.614Z,12.60
2023-03-25T04:58:36.840Z,12.60
2023-03-25T05:00:38.511Z,12.60
2023-03-25T05:02:47.357Z,12.60
2023-03-25T05:04:49.948Z,12.60
2023-03-25T05:06:51.647Z,12.60
2023-03-25T05:08:53.251Z,12.50
2023-03-25T05:10:55.224Z,12.50
2023-03-25T05:13:00.981Z,12.50
2023-03-25T05:15:02.653Z,12.50
2023-03-25T05:17:04.320Z,12.50
2023-03-25T05:19:06.657Z,12.50
2023-03-25T05:21:08.461Z,12.50
2023-03-25T05:23:17.732Z,12.50
2023-03-25T05:25:22.153Z,12.50
2023-03-25T05:27:23.767Z,12.50
2023-03-25T05:29:25.382Z,12.50
2023-03-25T05:31:27.605Z,12.50
2023-03-25T05:33:29.220Z,12.50
2023-03-25T05:35:31.086Z,12.50
2023-03-25T05:37:32.809Z,12.50
2023-03-25T05:39:34.519Z,12.50
2023-03-25T05:41:39.350Z,12.50
2023-03-25T05:43:41.493Z,12.40
2023-03-25T05:45:43.256Z,12.40
2023-03-25T05:47:45.080Z,12.40
2023-03-25T05:49:46.929Z,12.40
2023-03-25T05:51:54.100Z,12.50
2023-03-25T05:53:56.062Z,12.40
2023-03-25T05:55:57.741Z,12.40
2023-03-25T05:57:59.417Z,12.40
2023-03-25T06:00:01.092Z,12.40
2023-03-25T06:02:02.835Z,12.40
2023-03-25T06:04:04.764Z,12.40
2023-03-25T06:06:14.056Z,12.40
2023-03-25T06:08:17.169Z,12.40
2023-03-25T06:10:18.871Z,12.40
2023-03-25T06:12:21.619Z,12.40
2023-03-25T06:14:25.587Z,12.40
2023-03-25T06:16:27.640Z,12.40
2023-03-25T06:18:29.633Z,12.50
2023-03-25T06:20:31.413Z,12.40
2023-03-25T06:22:34.000Z,12.40
2023-03-25T06:24:37.238Z,12.40
2023-03-25T06:26:38.913Z,12.50
2023-03-25T06:28:40.703Z,12.40
2023-03-25T06:30:42.335Z,12.40
2023-03-25T06:32:44.204Z,12.40
2023-03-25T06:34:46.009Z,12.40
2023-03-25T06:36:49.986Z,12.40
2023-03-25T06:38:51.727Z,12.40
2023-03-25T06:40:55.302Z,12.40
2023-03-25T06:42:57.053Z,12.40
2023-03-25T06:45:36.945Z,12.50
2023-03-25T06:47:44.187Z,12.50
2023-03-25T06:49:45.868Z,12.50
2023-03-25T06:51:47.548Z,12.50
2023-03-25T06:53:49.240Z,12.50
2023-03-25T06:55:54.179Z,12.50
2023-03-25T06:57:56.230Z,12.50
2023-03-25T06:59:57.968Z,12.50
2023-03-25T07:01:59.842Z,12.50
2023-03-25T07:04:01.583Z,12.50
2023-03-25T07:06:03.810Z,12.50
2023-03-25T07:08:05.563Z,12.50
2023-03-25T07:10:07.450Z,12.50
2023-03-25T07:12:09.343Z,12.60
2023-03-25T07:14:11.169Z,12.60
2023-03-25T07:16:14.646Z,12.60
2023-03-25T07:18:16.507Z,12.60
2023-03-25T07:20:18.172Z,12.60
2023-03-25T07:22:19.905Z,12.60
2023-03-25T07:24:21.570Z,12.60
2023-03-25T07:26:23.346Z,12.60
2023-03-25T07:28:25.171Z,12.70
2023-03-25T07:30:26.858Z,12.70
2023-03-25T07:32:28.558Z,12.70
2023-03-25T07:34:30.833Z,12.70
2023-03-25T07:36:32.544Z,12.80
2023-03-25T07:38:34.602Z,12.80
2023-03-25T07:40:36.348Z,12.80
2023-03-25T07:42:38.502Z,12.80
2023-03-25T07:44:56.821Z,12.90
2023-03-25T07:46:58.748Z,12.90
2023-03-25T07:49:00.947Z,12.90
2023-03-25T07:51:02.775Z,12.90
2023-03-25T07:53:04.452Z,13.00
2023-03-25T07:55:06.495Z,13.00
2023-03-25T07:57:08.179Z,13.10
2023-03-25T07:59:09.945Z,13.10
2023-03-25T08:01:11.930Z,13.10
2023-03-25T08:03:14.249Z,13.10
2023-03-25T08:05:21.315Z,13.20
2023-03-25T08:07:23.366Z,13.20
2023-03-25T08:09:25.051Z,13.20
2023-03-25T08:11:26.733Z,13.20
2023-03-25T08:13:28.415Z,13.20
2023-03-25T08:15:30.199Z,13.30
2023-03-25T08:17:31.967Z,13.30
2023-03-25T08:19:33.799Z,13.30
2023-03-25T08:21:35.438Z,13.30
2023-03-25T08:23:37.613Z,13.30
2023-03-25T08:25:40.927Z,13.30
2023-03-25T08:27:42.609Z,13.30
2023-03-25T08:29:45.042Z,13.30
2023-03-25T08:31:52.093Z,13.30
2023-03-25T08:33:53.813Z,13.40
2023-03-25T08:35:57.014Z,13.30
2023-03-25T08:38:01.339Z,13.40
2023-03-25T08:40:07.765Z,13.40
2023-03-25T08:42:09.437Z,13.40
2023-03-25T08:44:11.611Z,13.40
2023-03-25T08:46:13.850Z,13.50
2023-03-25T08:48:15.556Z,13.50
2023-03-25T08:50:17.295Z,13.50
2023-03-25T08:52:18.997Z,13.50
2023-03-25T08:54:21.486Z,13.60
2023-03-25T08:56:23.307Z,13.60
2023-03-25T08:58:25.730Z,13.60
2023-03-25T09:00:27.437Z,13.60
2023-03-25T09:02:29.220Z,13.60
2023-03-25T09:04:31.228Z,13.70
2023-03-25T09:06:47.992Z,13.60
2023-03-25T09:08:55.972Z,13.70
2023-03-25T09:10:57.764Z,13.70
2023-03-25T09:12:59.456Z,13.60
2023-03-25T09:15:01.165Z,13.60
2023-03-25T09:17:03.325Z,13.60
2023-03-25T09:19:05.119Z,13.60
2023-03-25T09:21:06.945Z,13.60
2023-03-25T09:23:09.787Z,13.60
2023-03-25T09:25:11.464Z,13.60
2023-03-25T09:27:13.252Z,13.60
2023-03-25T09:29:15.196Z,13.60
2023-03-25T09:31:16.930Z,13.60
2023-03-25T09:33:19.240Z,13.60
2023-03-25T09:35:20.933Z,13.60
2023-03-25T09:37:22.630Z,13.60
2023-03-25T09:39:24.504Z,13.60
2023-03-25T09:41:26.131Z,13.50
2023-03-25T09:43:36.850Z,13.60
2023-03-25T09:45:41.149Z,13.60
2023-03-25T09:47:48.757Z,13.60
2023-03-25T09:49:53.772Z,13.50
2023-03-25T09:51:56.297Z,13.50
2023-03-25T09:54:04.251Z,13.50
2023-03-25T09:56:07.743Z,13.50
2023-03-25T09:58:21.991Z,13.50
2023-03-25T10:00:25.213Z,13.50
2023-03-25T10:02:26.970Z,13.50
2023-03-25T10:04:29.234Z,13.50
2023-03-25T10:06:32.293Z,13.50
2023-03-25T10:08:34.030Z,13.50
2023-03-25T10:10:39.400Z,13.50
2023-03-25T10:12:44.249Z,13.50
2023-03-25T10:14:55.303Z,13.50
2023-03-25T10:17:03.128Z,13.50
2023-03-25T10:19:15.508Z,13.50
2023-03-25T10:21:40.290Z,13.50
2023-03-25T10:23:58.777Z,13.50
2023-03-25T10:26:02.983Z,13.50
2023-03-25T10:28:05.600Z,13.50
2023-03-25T10:30:15.334Z,13.60
2023-03-25T10:32:18.398Z,13.60
2023-03-25T10:34:23.611Z,13.50
2023-03-25T10:36:30.865Z,13.60
2023-03-25T10:38:33.791Z,13.60
2023-03-25T10:40:49.975Z,13.60
2023-03-25T10:43:02.075Z,13.60
2023-03-25T10:45:03.944Z,13.60
2023-03-25T10:47:11.619Z,13.70
2023-03-25T10:49:18.545Z,13.70
2023-03-25T10:51:24.450Z,13.70
2023-03-25T10:53:27.592Z,13.70
2023-03-25T10:55:32.809Z,13.70
2023-03-25T10:57:34.983Z,13.70
2023-03-25T10:59:41.159Z,13.80
2023-03-25T11:01:43.279Z,13.80
2023-03-25T11:03:46.164Z,13.80
2023-03-25T11:05:48.618Z,13.80
2023-03-25T11:07:53.121Z,13.80
2023-03-25T11:09:56.784Z,13.90
2023-03-25T11:11:59.932Z,13.90
2023-03-25T11:14:02.453Z,13.90
2023-03-25T11:16:04.515Z,13.90
2023-03-25T11:18:15.472Z,13.90
2023-03-25T11:20:20.219Z,13.90
2023-03-25T11:22:24.575Z,13.90
2023-03-25T11:24:34.638Z,13.90
2023-03-25T11:26:38.868Z,13.90
2023-03-25T11:28:42.135Z,13.90
2023-03-25T11:31:02.538Z,13.90
2023-03-25T11:33:04.699Z,13.90
2023-03-25T11:35:07.817Z,13.80
2023-03-25T11:37:17.402Z,13.90
2023-03-25T11:39:39.640Z,13.90
2023-03-25T11:41:41.432Z,13.90
2023-03-25T11:43:43.170Z,13.90
2023-03-25T11:45:45.899Z,13.90
2023-03-25T11:47:47.905Z,13.90
2023-03-25T11:49:49.749Z,13.90
2023-03-25T11:51:57.417Z,13.90
2023-03-25T11:54:00.837Z,13.90
2023-03-25T11:56:04.791Z,13.90
2023-03-25T11:58:08.720Z,13.90
2023-03-25T12:00:20.495Z,13.80
2023-03-25T12:02:24.120Z,13.80
2023-03-25T12:04:26.124Z,13.80
2023-03-25T12:06:30.001Z,13.80
2023-03-25T12:08:48.346Z,13.80
2023-03-25T12:10:52.951Z,13.80
2023-03-25T12:13:03.242Z,13.80
2023-03-25T12:15:19.200Z,13.90
2023-03-25T12:17:26.242Z,13.90
2023-03-25T12:19:30.739Z,14.00
2023-03-25T12:21:52.163Z,14.00
2023-03-25T12:24:08.135Z,14.10
2023-03-25T12:26:36.546Z,14.30
2023-03-25T12:28:47.269Z,14.40
2023-03-25T12:30:55.554Z,14.50
2023-03-25T12:33:03.292Z,14.60
2023-03-25T12:35:14.704Z,14.80
2023-03-25T12:37:24.926Z,14.90
2023-03-25T12:39:42.829Z,15.10
2023-03-25T12:41:48.221Z,15.20
2023-03-25T12:43:49.911Z,15.30
2023-03-25T12:46:10.578Z,15.50
2023-03-25T12:48:12.234Z,15.60
2023-03-25T12:50:22.856Z,15.60
2023-03-25T12:52:24.631Z,15.70
2023-03-25T12:54:45.218Z,15.70
2023-03-25T12:57:05.657Z,15.80
2023-03-25T12:59:15.745Z,15.80
2023-03-25T13:01:26.479Z,15.70
2023-03-25T13:04:03.696Z,15.70
2023-03-25T13:06:17.631Z,15.70
2023-03-25T13:08:22.008Z,15.70
2023-03-25T13:10:28.196Z,15.70
2023-03-25T13:12:35.985Z,15.60
2023-03-25T13:14:44.638Z,15.60
2023-03-25T13:16:47.701Z,15.60
2023-03-25T13:19:04.739Z,15.60
2023-03-25T13:21:27.122Z,15.60
2023-03-25T13:23:30.531Z,15.60
2023-03-25T13:26:01.449Z,15.50
2023-03-25T13:28:06.512Z,15.50
2023-03-25T13:30:30.406Z,15.50
2023-03-25T13:32:48.396Z,15.50
2023-03-25T13:34:52.508Z,15.40
2023-03-25T13:36:54.361Z,15.40
2023-03-25T13:39:01.473Z,15.40
2023-03-25T13:41:23.445Z,15.40
2023-03-25T13:43:25.368Z,15.40
2023-03-25T13:45:28.801Z,15.40
2023-03-25T13:47:32.284Z,15.40
2023-03-25T13:49:41.961Z,15.40
2023-03-25T13:51:43.693Z,15.40
2023-03-25T13:54:02.232Z,15.40
2023-03-25T13:56:07.134Z,15.40
2023-03-25T13:58:18.473Z,15.40
2023-03-25T14:00:27.151Z,15.40
2023-03-25T14:02:47.508Z,15.40
2023-03-25T14:05:09.264Z,15.40
2023-03-25T14:07:17.135Z,15.40
2023-03-25T14:09:39.155Z,15.40
2023-03-25T14:11:44.737Z,15.50
2023-03-25T14:13:48.744Z,15.40
2023-03-25T14:15:54.568Z,15.50
2023-03-25T14:17:57.433Z,15.50
2023-03-25T14:19:59.899Z,15.60
2023-03-25T14:22:08.287Z,15.60
2023-03-25T14:24:12.755Z,15.70
2023-03-25T14:26:17.230Z,15.80
2023-03-25T14:28:21.368Z,15.90
2023-03-25T14:30:23.138Z,15.90
2023-03-25T14:32:25.965Z,15.90
2023-03-25T14:34:27.628Z,15.90
2023-03-25T14:36:29.279Z,16.00
2023-03-25T14:38:50.463Z,16.00
2023-03-25T14:41:02.777Z,16.00
2023-03-25T14:43:23.521Z,16.00
2023-03-25T14:45:32.315Z,16.10
2023-03-25T14:47:35.302Z,16.10
2023-03-25T14:49:50.547Z,16.10
2023-03-25T14:51:56.583Z,16.10
2023-03-25T14:54:16.986Z,16.10
2023-03-25T14:56:21.890Z,16.10
2023-03-25T14:58:23.628Z,16.10
2023-03-25T15:00:29.729Z,16.10
2023-03-25T15:02:33.405Z,16.20
2023-03-25T15:04:37.889Z,16.20
2023-03-25T15:06:40.343Z,16.20
2023-03-25T15:08:45.004Z,16.30
2023-03-25T15:11:01.981Z,16.30
2023-03-25T15:13:08.905Z,16.40
2023-03-25T15:15:25.579Z,16.40
2023-03-25T15:17:46.632Z,16.50
2023-03-25T15:20:06.348Z,16.50
2023-03-25T15:22:17.874Z,16.60
2023-03-25T15:24:24.223Z,16.60
2023-03-25T15:26:32.197Z,16.60
2023-03-25T15:28:53.098Z,16.60
2023-03-25T15:31:06.911Z,16.60
2023-03-25T15:33:41.449Z,16.60
2023-03-25T15:35:52.093Z,16.60
2023-03-25T15:37:56.664Z,16.60
2023-03-25T15:40:17.061Z,16.60
2023-03-25T15:42:35.450Z,16.60
2023-03-25T15:44:55.778Z,16.60
2023-03-25T15:47:16.327Z,16.60
2023-03-25T15:49:18.037Z,16.60
2023-03-25T15:51:38.197Z,16.60
2023-03-25T15:53:42.927Z,16.60
2023-03-25T15:55:52.804Z,16.50
2023-03-25T15:57:56.106Z,16.50
2023-03-25T15:59:57.860Z,16.50
2023-03-25T16:02:02.673Z,16.50
2023-03-25T16:04:10.467Z,16.50
2023-03-25T16:06:14.960Z,16.50
2023-03-25T16:08:19.451Z,16.50
2023-03-25T16:10:28.081Z,16.40
2023-03-25T16:12:29.801Z,16.50
2023-03-25T16:14:32.644Z,16.40
2023-03-25T16:16:36.165Z,16.40
2023-03-25T16:18:39.314Z,16.40
2023-03-25T16:20:41.804Z,16.40
2023-03-25T16:22:46.001Z,16.30
2023-03-25T16:24:48.293Z,16.30
2023-03-25T16:26:52.716Z,16.30
2023-03-25T16:28:54.571Z,16.30
2023-03-25T16:30:56.861Z,16.20
2023-03-25T16:33:24.755Z,16.20
2023-03-25T16:35:27.520Z,16.20
2023-03-25T16:37:32.688Z,16.20
2023-03-25T16:39:36.349Z,16.20
2023-03-25T16:41:38.119Z,16.20
2023-03-25T16:43:39.940Z,16.10
2023-03-25T16:45:42.914Z,16.10
2023-03-25T16:47:46.780Z,16.10
2023-03-25T16:49:50.336Z,16.10
2023-03-25T16:51:52.928Z,16.10
2023-03-25T16:53:56.018Z,16.10
2023-03-25T16:56:23.930Z,16.10
2023-03-25T16:58:27.845Z,16.10
2023-03-25T17:00:37.946Z,16.00
2023-03-25T17:02:41.225Z,16.00
2023-03-25T17:04:43.291Z,16.00
2023-03-25T17:06:52.986Z,16.00
2023-03-25T17:08:59.755Z,16.00
2023-03-25T17:11:01.893Z,16.00
2023-03-25T17:13:10.630Z,16.00
2023-03-25T17:15:16.157Z,16.00
2023-03-25T17:17:23.982Z,16.00
2023-03-25T17:19:26.720Z,15.90
2023-03-25T17:21:30.320Z,15.90
2023-03-25T17:23:36.520Z,15.90
2023-03-25T17:25:52.528Z,15.90
2023-03-25T17:28:00.785Z,15.90
2023-03-25T17:30:17.494Z,15.90
2023-03-25T17:32:19.407Z,15.90
2023-03-25T17:34:24.846Z,15.90
2023-03-25T17:36:27.661Z,15.90
2023-03-25T17:38:29.370Z,15.80
2023-03-25T17:40:31.424Z,15.80
2023-03-25T17:42:35.554Z,15.90
2023-03-25T17:44:38.500Z,15.90
2023-03-25T17:46:40.316Z,15.80
2023-03-25T17:48:42.248Z,15.80
2023-03-25T17:50:52.014Z,15.80
2023-03-25T17:52:54.262Z,15.80
2023-03-25T17:54:56.194Z,15.80
2023-03-25T17:56:57.990Z,15.80
2023-03-25T17:59:01.743Z,15.80
2023-03-25T18:01:03.931Z,15.80
2023-03-25T18:03:09.762Z,15.70
2023-03-25T18:05:12.097Z,15.70
2023-03-25T18:07:13.822Z,15.70
2023-03-25T18:09:17.110Z,15.70
2023-03-25T18:11:19.141Z,15.70
2023-03-25T18:13:25.010Z,15.70
2023-03-25T18:15:26.746Z,15.60
2023-03-25T18:17:28.475Z,15.70
2023-03-25T18:19:31.940Z,15.60
2023-03-25T18:21:33.794Z,15.60
2023-03-25T18:23:35.662Z,15.50
2023-03-25T18:25:37.446Z,15.50
2023-03-25T18:27:43.891Z,15.40
2023-03-25T18:29:46.343Z,15.40
2023-03-25T18:31:48.223Z,15.30
2023-03-25T18:33:50.665Z,15.20
2023-03-25T18:35:52.906Z,15.20
2023-03-25T18:37:54.865Z,15.10
2023-03-25T18:39:56.648Z,15.10
2023-03-25T18:41:58.357Z,15.10
2023-03-25T18:44:00.126Z,15.00
2023-03-25T18:46:01.928Z,15.00
2023-03-25T18:48:04.161Z,14.90
2023-03-25T18:50:24.914Z,14.90
2023-03-25T18:52:26.605Z,14.90
2023-03-25T18:54:28.361Z,14.80
2023-03-25T18:56:30.385Z,14.80
2023-03-25T18:58:32.925Z,14.70
2023-03-25T19:00:36.612Z,14.70
2023-03-25T19:02:38.470Z,14.70
2023-03-25T19:04:50.529Z,14.60
2023-03-25T19:07:04.080Z,14.60
2023-03-25T19:09:07.039Z,14.60
2023-03-25T19:11:20.056Z,14.60
2023-03-25T19:13:23.158Z,14.50
2023-03-25T19:15:27.572Z,14.50
2023-03-25T19:17:29.470Z,14.50
2023-03-25T19:19:31.471Z,14.50
2023-03-25T19:21:33.350Z,14.50
2023-03-25T19:23:36.481Z,14.40
2023-03-25T19:25:39.555Z,14.40
2023-03-25T19:27:42.763Z,14.40
2023-03-25T19:29:44.609Z,14.40
2023-03-25T19:31:46.636Z,14.40
2023-03-25T19:33:48.485Z,14.40
2023-03-25T19:35:51.434Z,14.30
2023-03-25T19:37:56.116Z,14.30
2023-03-25T19:39:58.277Z,14.30
2023-03-25T19:42:00.132Z,14.30
2023-03-25T19:44:01.941Z,14.30
2023-03-25T19:46:05.504Z,14.30
2023-03-25T19:48:07.433Z,14.30
2023-03-25T19:50:10.947Z,14.30
2023-03-25T19:52:12.794Z,14.30
2023-03-25T19:54:15.392Z,14.30
2023-03-25T19:56:17.258Z,14.30
2023-03-25T19:58:20.509Z,14.30
2023-03-25T20:00:26.033Z,14.30
2023-03-25T20:02:27.875Z,14.20
2023-03-25T20:04:29.979Z,14.20
2023-03-25T20:06:32.563Z,14.20
2023-03-25T20:08:34.372Z,14.20
2023-03-25T20:10:37.665Z,14.20
2023-03-25T20:12:39.703Z,14.20
2023-03-25T20:14:41.644Z,14.20
2023-03-25T20:16:43.414Z,14.10
2023-03-25T20:18:46.674Z,14.10
2023-03-25T20:20:48.368Z,14.10
2023-03-25T20:22:50.548Z,14.10
2023-03-25T20:24:52.339Z,14.10
2023-03-25T20:26:54.177Z,14.10
2023-03-25T20:28:56.340Z,14.10
2023-03-25T20:30:58.321Z,14.10
2023-03-25T20:33:00.292Z,14.10
2023-03-25T20:35:02.499Z,14.10
2023-03-25T20:37:04.776Z,14.10
2023-03-25T20:39:06.454Z,14.10
2023-03-25T20:41:08.381Z,14.10
2023-03-25T20:43:10.170Z,14.10
2023-03-25T20:45:13.965Z,14.10
2023-03-25T20:47:15.903Z,14.10
2023-03-25T20:49:19.772Z,14.00
2023-03-25T20:51:21.624Z,14.10
2023-03-25T20:53:23.337Z,14.10
2023-03-25T20:55:25.021Z,14.00
2023-03-25T20:57:26.838Z,14.00
2023-03-25T20:59:28.612Z,14.00
2023-03-25T21:01:30.358Z,14.00
2023-03-25T21:03:32.324Z,14.00
2023-03-25T21:05:34.123Z,13.90
2023-03-25T21:07:35.817Z,13.90
2023-03-25T21:09:37.827Z,13.90
2023-03-25T21:11:39.773Z,13.90
2023-03-25T21:13:41.884Z,13.90
2023-03-25T21:15:43.603Z,13.90
2023-03-25T21:17:45.426Z,13.80
2023-03-25T21:19:47.193Z,13.80
2023-03-25T21:21:48.909Z,13.80
2023-03-25T21:23:50.687Z,13.80
2023-03-25T21:25:52.648Z,13.80
2023-03-25T21:27:54.701Z,13.80
2023-03-25T21:29:56.424Z,13.80
2023-03-25T21:31:58.170Z,13.70
2023-03-25T21:34:00.252Z,13.70
2023-03-25T21:36:02.054Z,13.70
2023-03-25T21:38:07.301Z,13.70
2023-03-25T21:40:10.899Z,13.70
2023-03-25T21:42:13.069Z,13.70
2023-03-25T21:44:16.329Z,13.70
2023-03-25T21:46:18.175Z,13.70
2023-03-25T21:48:21.475Z,13.70
2023-03-25T21:50:23.217Z,13.70
2023-03-25T21:52:26.353Z,13.70
2023-03-25T21:54:28.716Z,13.80
2023-03-25T21:56:32.323Z,13.80
2023-03-25T21:58:36.476Z,13.70
2023-03-25T22:00:41.496Z,13.70
2023-03-25T22:02:44.711Z,13.70
2023-03-25T22:04:46.751Z,13.70
2023-03-25T22:06:48.437Z,13.70
2023-03-25T22:08:50.584Z,13.70
2023-03-25T22:11:00.944Z,13.70
2023-03-25T22:13:02.843Z,13.70
2023-03-25T22:15:04.785Z,13.70
2023-03-25T22:17:06.646Z,13.70
2023-03-25T22:19:08.496Z,13.70
2023-03-25T22:21:13.227Z,13.70
2023-03-25T22:23:16.083Z,13.70
2023-03-25T22:25:18.287Z,13.70
2023-03-25T22:27:20.047Z,13.70
2023-03-25T22:29:21.906Z,13.70
2023-03-25T22:31:30.904Z,13.70
2023-03-25T22:33:36.404Z,13.60
2023-03-25T22:35:39.076Z,13.60
2023-03-25T22:37:41.825Z,13.60
2023-03-25T22:39:43.568Z,13.60
2023-03-25T22:41:45.682Z,13.60
2023-03-25T22:43:47.527Z,13.60
2023-03-25T22:45:49.286Z,13.50
2023-03-25T22:47:51.202Z,13.50
2023-03-25T22:49:52.938Z,13.50
2023-03-25T22:51:55.538Z,13.50
2023-03-25T22:53:58.695Z,13.50
2023-03-25T22:56:00.642Z,13.50
2023-03-25T22:58:02.351Z,13.50
2023-03-25T23:00:08.898Z,13.50
2023-03-25T23:02:12.975Z,13.50
2023-03-25T23:04:14.802Z,13.50
2023-03-25T23:06:16.720Z,13.50
2023-03-25T23:08:18.509Z,13.50
2023-03-25T23:10:20.262Z,13.50
2023-03-25T23:12:23.054Z,13.50
2023-03-25T23:14:24.712Z,13.50
2023-03-25T23:16:28.023Z,13.50
2023-03-25T23:18:29.762Z,13.50
2023-03-25T23:20:31.761Z,13.50
2023-03-25T23:22:33.565Z,13.50
2023-03-25T23:24:36.000Z,13.50
2023-03-25T23:26:39.382Z,13.50
2023-03-25T23:28:41.649Z,13.50
2023-03-25T23:30:45.663Z,13.50
2023-03-25T23:32:47.469Z,13.50
2023-03-25T23:34:49.205Z,13.40
2023-03-25T23:36:51.268Z,13.50
2023-03-25T23:38:53.637Z,13.50
2023-03-25T23:40:59.470Z,13.40
2023-03-25T23:43:02.182Z,13.40
2023-03-25T23:45:04.509Z,13.40
2023-03-25T23:47:06.799Z,13.40
2023-03-25T23:49:09.055Z,13.40
2023-03-25T23:51:12.375Z,13.40
2023-03-25T23:53:14.080Z,13.30
2023-03-25T23:55:15.899Z,13.30
2023-03-25T23:57:18.432Z,13.30
2023-03-25T23:59:20.322Z,13.30
